Time;durP1;ratioP1;P1;durP2;ratioP2;P2;SDS_P1;SDS_P2;PMS_P1;PMS_P2;Temp;Humidity;BMP_temperature;BMP_pressure;BME280_temperature;BME280_humidity;BME280_pressure;Samples;Min_cycle;Max_cycle;Signal;HPM_P1;HPM_P2
2023/11/26 00:00:47;;;;;;;17.45;6.10;;;5.10;99.90;;;;;;5066150;28;20389;-75
2023/11/26 00:03:14;;;;;;;15.23;5.85;;;5.10;99.90;;;;;;5066094;28;20025;-76
2023/11/26 00:05:40;;;;;;;20.33;6.40;;;5.10;99.90;;;;;;5047763;28;20042;-76
2023/11/26 00:08:05;;;;;;;16.48;6.32;;;5.10;99.90;;;;;;5065906;28;20025;-76
2023/11/26 00:10:31;;;;;;;15.07;5.63;;;5.00;99.90;;;;;;5065998;28;20028;-75
2023/11/26 00:12:57;;;;;;;21.38;6.35;;;5.00;99.90;;;;;;5065809;28;20013;-76
2023/11/26 00:15:23;;;;;;;14.70;6.22;;;4.90;99.90;;;;;;5066357;28;20405;-76
2023/11/26 00:17:49;;;;;;;18.17;5.90;;;4.90;99.90;;;;;;5047637;28;20055;-76
2023/11/26 00:20:15;;;;;;;15.57;6.20;;;4.90;99.90;;;;;;5065958;28;20040;-75
2023/11/26 00:22:41;;;;;;;20.13;6.50;;;4.90;99.90;;;;;;5050709;28;20508;-75
2023/11/26 00:25:07;;;;;;;18.50;6.55;;;4.80;99.90;;;;;;5065881;28;20107;-75
2023/11/26 00:27:33;;;;;;;17.63;6.18;;;4.80;99.90;;;;;;5069288;28;20028;-75
2023/11/26 00:29:59;;;;;;;17.42;7.10;;;4.80;99.90;;;;;;5069221;28;20091;-75
2023/11/26 00:32:25;;;;;;;21.98;6.53;;;4.80;99.90;;;;;;5069580;28;20021;-76
2023/11/26 00:34:51;;;;;;;16.85;6.45;;;4.70;99.90;;;;;;5069173;28;20012;-76
2023/11/26 00:37:17;;;;;;;16.63;6.53;;;4.70;99.90;;;;;;5069267;28;20027;-76
2023/11/26 00:39:43;;;;;;;15.00;5.88;;;4.70;99.90;;;;;;5054438;28;20158;-76
2023/11/26 00:42:08;;;;;;;15.85;5.82;;;4.70;99.90;;;;;;5069645;28;20370;-76
2023/11/26 00:44:35;;;;;;;15.98;5.97;;;4.60;99.90;;;;;;5067175;28;20031;-76
2023/11/26 00:47:00;;;;;;;18.60;5.85;;;4.60;99.90;;;;;;5069084;28;20040;-75
2023/11/26 00:49:26;;;;;;;18.83;6.25;;;4.50;99.90;;;;;;5050869;28;20056;-76
2023/11/26 00:51:52;;;;;;;12.98;5.72;;;4.50;99.90;;;;;;5068797;28;20477;-75
2023/11/26 00:54:18;;;;;;;19.67;6.13;;;4.50;99.90;;;;;;5063477;28;20024;-75
2023/11/26 00:56:44;;;;;;;18.02;5.88;;;4.50;99.90;;;;;;5051384;28;20033;-75
2023/11/26 00:59:10;;;;;;;14.23;5.97;;;4.40;99.90;;;;;;5051153;28;20524;-75
2023/11/26 01:01:35;;;;;;;17.35;6.00;;;4.40;99.90;;;;;;5068963;28;20028;-76
2023/11/26 01:04:01;;;;;;;13.13;5.72;;;4.40;99.90;;;;;;5050935;28;20056;-76
2023/11/26 01:06:27;;;;;;;11.90;5.57;;;4.30;99.90;;;;;;5069257;28;20028;-75
2023/11/26 01:08:53;;;;;;;14.25;5.38;;;4.20;99.90;;;;;;5068110;28;20028;-76
2023/11/26 01:11:18;;;;;;;19.52;6.03;;;4.20;99.90;;;;;;5050896;28;20021;-76
2023/11/26 01:13:44;;;;;;;18.20;6.25;;;4.20;99.90;;;;;;5067838;28;20037;-75
2023/11/26 01:16:10;;;;;;;18.00;5.78;;;4.10;99.90;;;;;;5050658;28;20017;-75
2023/11/26 01:18:38;;;;;;;17.77;5.97;;;4.20;99.90;;;;;;5050280;28;20034;-76
2023/11/26 01:21:04;;;;;;;17.73;6.25;;;4.20;99.90;;;;;;5068669;28;20102;-76
2023/11/26 01:23:29;;;;;;;15.65;5.75;;;4.20;99.90;;;;;;5060307;28;20032;-75
2023/11/26 01:25:55;;;;;;;12.55;5.22;;;4.20;99.90;;;;;;5068865;28;20119;-76
2023/11/26 01:28:21;;;;;;;18.45;5.47;;;4.20;99.90;;;;;;5068292;28;20402;-75
2023/11/26 01:30:46;;;;;;;19.55;5.53;;;4.20;99.90;;;;;;5068511;28;20593;-76
2023/11/26 01:33:12;;;;;;;19.33;5.70;;;4.20;99.90;;;;;;5067833;28;20017;-75
2023/11/26 01:35:38;;;;;;;13.85;4.65;;;4.20;99.90;;;;;;5058348;28;20108;-76
2023/11/26 01:38:03;;;;;;;16.70;4.95;;;4.30;99.90;;;;;;5063337;28;20013;-76
2023/11/26 01:40:36;;;;;;;15.18;4.97;;;4.30;99.90;;;;;;5057793;28;20032;-76
2023/11/26 01:43:02;;;;;;;18.35;5.63;;;4.30;99.90;;;;;;5067780;28;20028;-76
2023/11/26 01:45:29;;;;;;;15.27;5.00;;;4.30;99.90;;;;;;5061343;28;21264;-76
2023/11/26 01:47:55;;;;;;;24.38;5.70;;;4.30;99.90;;;;;;5068113;28;20068;-75
2023/11/26 01:50:23;;;;;;;15.10;5.60;;;4.40;99.90;;;;;;5067676;28;20017;-76
2023/11/26 01:52:50;;;;;;;14.88;5.25;;;4.30;99.90;;;;;;5068051;28;20027;-76
2023/11/26 01:55:21;;;;;;;16.42;5.82;;;4.30;99.90;;;;;;5068072;28;20035;-76
2023/11/26 01:57:46;;;;;;;17.15;5.50;;;4.30;99.90;;;;;;5049780;28;20035;-76
2023/11/26 02:00:14;;;;;;;21.15;5.53;;;4.30;99.90;;;;;;5049627;28;20017;-76
2023/11/26 02:02:40;;;;;;;18.90;5.72;;;4.30;99.90;;;;;;5067649;28;20452;-75
2023/11/26 02:05:10;;;;;;;17.33;5.03;;;4.30;99.90;;;;;;5067369;28;20029;-75
2023/11/26 02:07:36;;;;;;;20.13;5.50;;;4.20;99.90;;;;;;5066047;28;20033;-76
2023/11/26 02:10:02;;;;;;;24.05;5.40;;;4.20;99.90;;;;;;5058067;28;20028;-76
2023/11/26 02:12:27;;;;;;;14.43;4.68;;;4.20;99.90;;;;;;5049452;28;20485;-76
2023/11/26 02:14:53;;;;;;;18.17;5.18;;;4.20;99.90;;;;;;5067219;28;20055;-76
2023/11/26 02:17:20;;;;;;;18.50;6.20;;;4.20;99.90;;;;;;5067689;28;20424;-76
2023/11/26 02:19:46;;;;;;;18.30;5.53;;;4.20;99.90;;;;;;5062060;28;20448;-76
2023/11/26 02:22:12;;;;;;;12.32;4.60;;;4.20;99.90;;;;;;5049808;28;20024;-76
2023/11/26 02:24:47;;;;;;;12.55;4.55;;;4.20;99.90;;;;;;5049736;28;20034;-76
2023/11/26 02:27:14;;;;;;;14.90;4.53;;;4.20;99.90;;;;;;5067438;28;20456;-78
2023/11/26 02:29:40;;;;;;;11.82;4.95;;;4.20;99.90;;;;;;5067163;28;20047;-75
2023/11/26 02:32:07;;;;;;;17.63;5.20;;;4.20;99.90;;;;;;5067182;28;20020;-76
2023/11/26 02:34:34;;;;;;;13.48;5.45;;;4.10;99.90;;;;;;5066851;28;20028;-75
2023/11/26 02:37:00;;;;;;;15.50;4.63;;;4.10;99.90;;;;;;5049017;28;20125;-75
2023/11/26 02:39:28;;;;;;;18.20;5.13;;;4.10;99.90;;;;;;5034389;28;20123;-75
2023/11/26 02:41:54;;;;;;;20.70;5.10;;;4.10;99.90;;;;;;5067142;28;20020;-75
2023/11/26 02:44:20;;;;;;;14.65;5.00;;;4.10;99.90;;;;;;5066878;28;20037;-75
2023/11/26 02:46:47;;;;;;;14.50;4.97;;;4.00;99.90;;;;;;5066612;28;20051;-75
2023/11/26 02:49:13;;;;;;;16.10;5.22;;;4.10;99.90;;;;;;5048634;28;20020;-75
2023/11/26 02:51:38;;;;;;;15.43;4.80;;;4.00;99.90;;;;;;5066963;28;20023;-76
2023/11/26 02:54:04;;;;;;;21.30;4.80;;;4.00;99.90;;;;;;5066364;28;20016;-75
2023/11/26 02:56:30;;;;;;;10.50;4.60;;;4.00;99.90;;;;;;5066692;28;20044;-75
2023/11/26 02:58:56;;;;;;;16.05;4.30;;;3.90;99.90;;;;;;5066442;28;20024;-76
2023/11/26 03:01:22;;;;;;;17.27;4.80;;;3.90;99.90;;;;;;5067232;28;20173;-74
2023/11/26 03:03:48;;;;;;;17.42;5.28;;;3.90;99.90;;;;;;5066612;28;20021;-75
2023/11/26 03:06:19;;;;;;;18.27;5.65;;;3.90;99.90;;;;;;5066833;28;20028;-76
2023/11/26 03:08:48;;;;;;;16.00;4.70;;;3.90;99.90;;;;;;5053416;28;20021;-75
2023/11/26 03:13:58;;;;;;;18.00;5.65;;;3.90;99.90;;;;;;5066769;28;20127;-76
2023/11/26 03:16:24;;;;;;;28.40;5.95;;;3.90;99.90;;;;;;5048610;28;20107;-76
2023/11/26 03:18:50;;;;;;;20.08;5.45;;;3.90;99.90;;;;;;5066214;28;20058;-75
2023/11/26 03:21:18;;;;;;;20.83;6.18;;;3.80;99.90;;;;;;5066713;28;20027;-75
2023/11/26 03:23:45;;;;;;;22.42;5.78;;;3.80;99.90;;;;;;5066303;28;20552;-76
2023/11/26 03:26:12;;;;;;;21.40;5.63;;;3.80;99.90;;;;;;5046609;28;20025;-76
2023/11/26 03:28:40;;;;;;;16.20;5.15;;;3.80;99.90;;;;;;5056415;28;20017;-76
2023/11/26 03:31:06;;;;;;;16.63;5.35;;;3.70;99.90;;;;;;5066540;28;20040;-76
2023/11/26 03:33:32;;;;;;;12.30;4.57;;;3.70;99.90;;;;;;5066210;28;20056;-76
2023/11/26 03:35:57;;;;;;;20.77;5.13;;;3.70;99.90;;;;;;5066223;28;20025;-76
2023/11/26 03:38:23;;;;;;;15.30;4.68;;;3.70;99.90;;;;;;5059933;28;20055;-76
2023/11/26 03:40:48;;;;;;;14.80;4.40;;;3.70;99.90;;;;;;5058541;28;20687;-76
2023/11/26 03:43:15;;;;;;;19.15;4.80;;;3.70;99.90;;;;;;5066312;28;20024;-76
2023/11/26 03:45:41;;;;;;;13.80;4.40;;;3.70;99.90;;;;;;5065906;28;20129;-76
2023/11/26 03:48:07;;;;;;;14.40;4.78;;;3.60;99.90;;;;;;5066131;28;20037;-76
2023/11/26 03:50:33;;;;;;;18.73;5.10;;;3.60;99.90;;;;;;5065870;28;20426;-76
2023/11/26 03:52:58;;;;;;;19.85;5.35;;;3.70;99.90;;;;;;5066343;28;20029;-76
2023/11/26 03:55:24;;;;;;;17.88;5.05;;;3.60;99.90;;;;;;5066037;28;20023;-76
2023/11/26 03:57:50;;;;;;;15.07;4.45;;;3.60;99.90;;;;;;5066747;28;20085;-75
2023/11/26 04:00:16;;;;;;;19.38;4.78;;;3.70;99.90;;;;;;5066150;28;20131;-76
2023/11/26 04:02:42;;;;;;;12.98;4.40;;;3.70;99.90;;;;;;5051945;28;20025;-76
2023/11/26 04:05:08;;;;;;;21.77;4.72;;;3.70;99.90;;;;;;5069742;28;20031;-75
2023/11/26 04:07:34;;;;;;;14.15;5.25;;;3.80;99.90;;;;;;5051690;28;20074;-75
2023/11/26 04:10:00;;;;;;;15.40;4.60;;;3.80;99.90;;;;;;5069658;28;20016;-75
2023/11/26 04:12:26;;;;;;;12.05;4.45;;;3.80;99.90;;;;;;5069691;28;20706;-75
2023/11/26 04:14:57;;;;;;;15.32;5.13;;;3.80;99.90;;;;;;5069310;28;20066;-75
2023/11/26 04:17:24;;;;;;;;;;;3.80;99.90;;;;;;5052116;28;20051;-75
2023/11/26 04:19:50;;;;;;;13.57;4.57;;;3.80;99.90;;;;;;5069138;28;19908;-75
2023/11/26 04:22:20;;;;;;;19.13;5.10;;;3.80;99.90;;;;;;5057770;28;20032;-75
2023/11/26 04:24:50;;;;;;;16.55;4.63;;;3.80;99.90;;;;;;5055461;28;20025;-75
2023/11/26 04:27:22;;;;;;;12.30;4.10;;;3.80;99.90;;;;;;5058899;28;20065;-75
2023/11/26 04:29:47;;;;;;;14.50;4.65;;;3.80;99.90;;;;;;5050999;28;20024;-75
2023/11/26 04:32:13;;;;;;;16.20;5.18;;;3.80;99.90;;;;;;5069646;28;20016;-75
2023/11/26 04:34:40;;;;;;;12.18;4.43;;;3.80;99.90;;;;;;5052949;28;20123;-75
2023/11/26 04:37:08;;;;;;;15.23;4.35;;;3.80;99.90;;;;;;5069916;28;20021;-76
2023/11/26 04:39:34;;;;;;;14.98;4.60;;;3.70;99.90;;;;;;5054765;28;20565;-75
2023/11/26 04:42:01;;;;;;;20.48;5.80;;;3.70;99.90;;;;;;5069225;28;20061;-75
2023/11/26 04:44:27;;;;;;;12.43;4.68;;;3.70;99.90;;;;;;5068963;28;20032;-75
2023/11/26 04:46:53;;;;;;;14.48;4.22;;;3.60;99.90;;;;;;5069141;28;20028;-75
2023/11/26 04:49:19;;;;;;;15.65;4.10;;;3.60;99.90;;;;;;5068680;28;20033;-75
2023/11/26 04:51:45;;;;;;;16.27;4.38;;;3.50;99.90;;;;;;5056426;28;20086;-75
2023/11/26 04:54:11;;;;;;;17.42;4.00;;;3.50;99.90;;;;;;5068953;28;20008;-75
2023/11/26 04:56:38;;;;;;;13.65;4.35;;;3.50;99.90;;;;;;5051056;28;20775;-75
2023/11/26 04:59:04;;;;;;;16.65;4.57;;;3.50;99.90;;;;;;5068384;28;20032;-75
2023/11/26 05:01:30;;;;;;;18.67;5.47;;;3.50;99.90;;;;;;5068749;28;20606;-75
2023/11/26 05:03:56;;;;;;;12.80;4.32;;;3.50;99.90;;;;;;5068755;28;20099;-75
2023/11/26 05:06:22;;;;;;;15.73;4.10;;;3.40;99.90;;;;;;5068866;28;20029;-75
2023/11/26 05:08:49;;;;;;;11.77;3.83;;;3.40;99.90;;;;;;5068136;28;20789;-75
2023/11/26 05:11:15;;;;;;;13.95;4.50;;;3.50;99.90;;;;;;5068798;28;20024;-75
2023/11/26 05:13:41;;;;;;;15.45;3.97;;;3.40;99.90;;;;;;5067554;28;20187;-74
2023/11/26 05:16:07;;;;;;;15.23;4.20;;;3.50;99.90;;;;;;5050512;28;20016;-75
2023/11/26 05:18:32;;;;;;;11.07;3.33;;;3.50;99.90;;;;;;5068246;28;20035;-75
2023/11/26 05:20:58;;;;;;;10.10;4.07;;;3.50;99.90;;;;;;5068484;28;20024;-75
2023/11/26 05:23:24;;;;;;;17.95;3.40;;;3.60;99.90;;;;;;5068356;28;20025;-75
2023/11/26 05:25:50;;;;;;;15.15;3.65;;;3.60;99.90;;;;;;5068199;28;20071;-74
2023/11/26 05:28:15;;;;;;;13.57;3.28;;;3.60;99.90;;;;;;5068850;28;20036;-75
2023/11/26 05:30:42;;;;;;;12.63;3.15;;;3.60;99.90;;;;;;5056816;28;20025;-75
2023/11/26 05:33:08;;;;;;;13.60;3.40;;;3.60;99.90;;;;;;5050323;28;20474;-75
2023/11/26 05:35:33;;;;;;;16.10;3.80;;;3.60;99.90;;;;;;5033236;28;20118;-75
2023/11/26 05:37:59;;;;;;;11.45;3.08;;;3.60;99.90;;;;;;5050008;28;20115;-75
2023/11/26 05:40:25;;;;;;;11.35;3.28;;;3.60;99.90;;;;;;5038904;28;20050;-75
2023/11/26 05:42:51;;;;;;;10.70;3.28;;;3.60;99.90;;;;;;5054851;28;20102;-75
2023/11/26 05:45:17;;;;;;;10.73;2.65;;;3.60;99.90;;;;;;5068052;28;20071;-75
2023/11/26 05:47:42;;;;;;;13.63;3.28;;;3.70;99.90;;;;;;5060476;28;20078;-75
2023/11/26 05:50:08;;;;;;;16.30;3.75;;;3.70;99.90;;;;;;5049669;28;20012;-75
2023/11/26 05:52:35;;;;;;;8.80;2.90;;;3.70;99.90;;;;;;5067773;28;20032;-75
2023/11/26 05:55:01;;;;;;;11.15;3.05;;;3.70;99.90;;;;;;5049575;28;20024;-75
2023/11/26 05:57:27;;;;;;;11.63;2.63;;;3.80;99.90;;;;;;5067895;28;20016;-75
2023/11/26 05:59:53;;;;;;;10.15;2.78;;;3.80;99.90;;;;;;5067372;28;20029;-75
2023/11/26 06:02:19;;;;;;;13.18;3.28;;;3.80;99.90;;;;;;5067587;28;20481;-74
2023/11/26 06:04:45;;;;;;;12.63;3.20;;;3.90;99.90;;;;;;5067020;28;20028;-75
2023/11/26 06:07:10;;;;;;;14.05;2.90;;;3.90;99.90;;;;;;5067797;28;20017;-75
2023/11/26 06:09:36;;;;;;;10.88;3.20;;;3.90;99.90;;;;;;5049261;28;20025;-75
2023/11/26 06:12:03;;;;;;;11.60;3.25;;;3.90;99.90;;;;;;5056315;28;20493;-75
2023/11/26 06:14:28;;;;;;;17.05;3.45;;;3.90;99.90;;;;;;5067204;28;20021;-75
2023/11/26 06:16:54;;;;;;;11.32;3.20;;;4.00;99.90;;;;;;5067531;28;20497;-75
2023/11/26 06:19:20;;;;;;;14.70;3.00;;;4.00;99.90;;;;;;5066993;28;20025;-75
2023/11/26 06:21:47;;;;;;;13.02;2.70;;;4.00;99.90;;;;;;5072262;28;20035;-75
2023/11/26 06:24:13;;;;;;;8.68;2.47;;;4.00;99.90;;;;;;5066780;28;20031;-75
2023/11/26 06:26:40;;;;;;;13.50;2.55;;;4.10;99.90;;;;;;5049130;28;20029;-74
2023/11/26 06:29:06;;;;;;;14.55;3.72;;;4.10;99.90;;;;;;5066819;28;20052;-75
2023/11/26 06:31:32;;;;;;;10.98;2.40;;;4.10;99.90;;;;;;5066778;28;20048;-75
2023/11/26 06:33:58;;;;;;;11.95;2.67;;;4.10;99.90;;;;;;5066953;28;20572;-75
2023/11/26 06:36:25;;;;;;;10.93;2.38;;;4.10;99.90;;;;;;5067121;28;20021;-75
2023/11/26 06:38:51;;;;;;;5.53;2.00;;;4.20;99.90;;;;;;5056567;28;20498;-75
2023/11/26 06:41:24;;;;;;;10.85;2.40;;;4.10;99.90;;;;;;5044825;28;20086;-75
2023/11/26 06:43:53;;;;;;;12.88;2.53;;;4.20;99.90;;;;;;5066655;28;20099;-75
2023/11/26 06:46:19;;;;;;;13.23;2.80;;;4.20;99.90;;;;;;5066708;28;20075;-75
2023/11/26 06:48:45;;;;;;;13.15;2.63;;;4.20;99.90;;;;;;5066756;28;20024;-75
2023/11/26 06:51:14;;;;;;;13.48;2.63;;;4.20;99.90;;;;;;5066863;28;20082;-75
2023/11/26 06:53:40;;;;;;;8.48;2.40;;;4.20;99.90;;;;;;5066868;28;20100;-75
2023/11/26 06:56:06;;;;;;;9.48;2.08;;;4.20;99.90;;;;;;5048620;28;20541;-75
2023/11/26 06:58:39;;;;;;;12.80;2.25;;;4.30;99.90;;;;;;5054311;28;20028;-75
2023/11/26 07:01:05;;;;;;;8.45;2.03;;;4.30;99.90;;;;;;5061353;28;20021;-75
2023/11/26 07:03:33;;;;;;;12.27;2.05;;;4.30;99.90;;;;;;5066738;28;20024;-75
2023/11/26 07:06:04;;;;;;;11.50;2.10;;;4.30;99.90;;;;;;5066173;28;20028;-75
2023/11/26 07:08:31;;;;;;;9.68;2.42;;;4.30;99.90;;;;;;5066856;28;20035;-75
2023/11/26 07:10:56;;;;;;;9.52;2.17;;;4.30;99.90;;;;;;5066373;28;20018;-75
2023/11/26 07:13:22;;;;;;;12.93;2.30;;;4.40;99.90;;;;;;5067048;28;20444;-75
2023/11/26 07:15:48;;;;;;;10.52;2.40;;;4.40;99.90;;;;;;5066271;28;20024;-75
2023/11/26 07:18:14;;;;;;;15.05;2.63;;;4.30;99.90;;;;;;5066581;28;20063;-75
2023/11/26 07:20:43;;;;;;;12.85;2.65;;;4.30;99.90;;;;;;5066132;28;20025;-74
2023/11/26 07:23:09;;;;;;;16.08;3.08;;;4.40;99.90;;;;;;5066609;28;20477;-75
2023/11/26 07:25:34;;;;;;;9.07;2.38;;;4.30;99.90;;;;;;5054996;28;20036;-75
2023/11/26 07:28:03;;;;;;;8.27;2.60;;;4.40;99.90;;;;;;5066632;28;20398;-75
2023/11/26 07:30:29;;;;;;;11.30;2.47;;;4.40;99.90;;;;;;5048150;28;20123;-75
2023/11/26 07:32:55;;;;;;;9.35;2.60;;;4.40;99.90;;;;;;5066870;28;20143;-74
2023/11/26 07:35:21;;;;;;;13.38;2.50;;;4.40;99.90;;;;;;5066901;28;20013;-75
2023/11/26 07:37:46;;;;;;;15.70;2.50;;;4.40;99.90;;;;;;5051312;28;20032;-74
2023/11/26 07:40:15;;;;;;;11.35;2.15;;;4.50;99.90;;;;;;5057372;28;20051;-74
2023/11/26 07:42:41;;;;;;;7.60;2.25;;;4.50;99.90;;;;;;5058606;28;20033;-75
2023/11/26 07:45:11;;;;;;;12.55;2.90;;;4.50;99.90;;;;;;5070036;28;20279;-75
2023/11/26 07:47:37;;;;;;;10.38;2.63;;;4.50;99.90;;;;;;5070525;28;20028;-75
2023/11/26 07:50:06;;;;;;;8.43;2.15;;;4.60;99.90;;;;;;5052430;28;20443;-75
2023/11/26 07:52:33;;;;;;;10.65;2.53;;;4.60;99.90;;;;;;5070516;28;20079;-75
2023/11/26 07:55:04;;;;;;;15.57;2.63;;;4.60;99.90;;;;;;5070219;28;20029;-75
2023/11/26 07:57:30;;;;;;;11.50;2.50;;;4.60;99.90;;;;;;5052234;28;20017;-75
2023/11/26 07:59:57;;;;;;;9.50;2.17;;;4.70;99.90;;;;;;5051985;28;20048;-75
2023/11/26 08:02:23;;;;;;;9.15;2.50;;;4.70;99.90;;;;;;5070228;28;20501;-75
2023/11/26 08:04:53;;;;;;;13.55;3.05;;;4.70;99.90;;;;;;5069705;28;20025;-74
2023/11/26 08:07:23;;;;;;;10.90;2.42;;;4.70;99.90;;;;;;5069930;28;20531;-74
2023/11/26 08:09:52;;;;;;;16.38;2.78;;;4.70;99.90;;;;;;5069443;28;20036;-75
2023/11/26 08:12:20;;;;;;;12.68;2.22;;;4.70;99.90;;;;;;5069891;28;20021;-74
2023/11/26 08:14:47;;;;;;;12.52;2.83;;;4.80;99.90;;;;;;5069778;28;20381;-75
2023/11/26 08:17:15;;;;;;;12.10;2.50;;;4.80;99.90;;;;;;5069794;28;20102;-75
2023/11/26 08:19:41;;;;;;;8.63;2.33;;;4.80;99.90;;;;;;5069437;28;20036;-75
2023/11/26 08:22:07;;;;;;;12.20;2.38;;;4.80;99.90;;;;;;5069787;28;20035;-75
2023/11/26 08:24:36;;;;;;;14.57;2.45;;;4.90;99.90;;;;;;5069691;28;20025;-75
2023/11/26 08:27:02;;;;;;;12.10;2.60;;;4.90;99.90;;;;;;5069813;28;20056;-74
2023/11/26 08:29:27;;;;;;;6.53;2.10;;;4.90;99.90;;;;;;5069457;28;20411;-75
2023/11/26 08:31:54;;;;;;;10.18;2.17;;;5.00;99.90;;;;;;5073527;28;20029;-75
2023/11/26 08:34:22;;;;;;;9.95;2.47;;;5.00;99.90;;;;;;5051229;28;20025;-75
2023/11/26 08:36:50;;;;;;;10.18;2.15;;;5.00;99.90;;;;;;5069458;28;20020;-75
2023/11/26 08:39:26;;;;;;;12.45;2.42;;;5.10;99.90;;;;;;5073537;28;20126;-75
2023/11/26 08:41:52;;;;;;;16.42;2.70;;;5.10;99.90;;;;;;5044889;28;20028;-74
2023/11/26 08:44:18;;;;;;;11.38;2.67;;;5.10;99.90;;;;;;5076462;28;20043;-75
2023/11/26 08:46:47;;;;;;;11.07;2.60;;;5.10;99.90;;;;;;5073765;28;20021;-75
2023/11/26 08:49:18;;;;;;;11.10;2.80;;;5.20;99.90;;;;;;5063443;28;20028;-75
2023/11/26 08:51:46;;;;;;;9.65;2.60;;;5.20;99.90;;;;;;5069222;28;20021;-74
2023/11/26 08:54:12;;;;;;;13.15;3.28;;;5.10;99.90;;;;;;5082622;28;20021;-75
2023/11/26 08:56:37;;;;;;;15.90;2.70;;;5.20;99.90;;;;;;5081753;28;20019;-75
2023/11/26 08:59:04;;;;;;;15.70;3.42;;;5.30;99.90;;;;;;5075076;28;20035;-75
2023/11/26 09:01:30;;;;;;;12.35;3.45;;;5.30;99.90;;;;;;5077793;28;20036;-75
2023/11/26 09:03:56;;;;;;;9.50;2.88;;;5.30;99.90;;;;;;5083387;28;20507;-75
2023/11/26 09:06:22;;;;;;;10.20;2.80;;;5.30;99.90;;;;;;5077357;28;20016;-75
2023/11/26 09:08:50;;;;;;;10.55;3.00;;;5.40;99.90;;;;;;5075104;28;20028;-75
2023/11/26 09:11:17;;;;;;;9.90;3.40;;;5.40;99.90;;;;;;5058061;28;20509;-74
2023/11/26 09:13:43;;;;;;;15.55;4.00;;;5.50;99.90;;;;;;5076351;28;20031;-75
2023/11/26 09:16:08;;;;;;;14.75;3.83;;;5.40;99.90;;;;;;5049722;28;20025;-74
2023/11/26 09:18:37;;;;;;;15.02;4.25;;;5.50;99.90;;;;;;5079802;28;20127;-74
2023/11/26 09:21:05;;;;;;;14.40;4.05;;;5.50;99.90;;;;;;5074095;28;20209;-75
2023/11/26 09:23:32;;;;;;;15.20;4.30;;;5.60;99.90;;;;;;5073929;28;20024;-75
2023/11/26 09:26:01;;;;;;;20.13;4.97;;;5.60;99.90;;;;;;5082648;28;20028;-74
2023/11/26 09:28:27;;;;;;;17.35;4.25;;;5.60;99.90;;;;;;5077342;28;20128;-75
2023/11/26 09:30:52;;;;;;;19.13;5.00;;;5.70;99.90;;;;;;5073832;28;20107;-75
2023/11/26 09:33:18;;;;;;;18.73;6.05;;;5.70;99.90;;;;;;5082337;28;20013;-74
2023/11/26 09:35:44;;;;;;;19.92;5.05;;;5.70;99.90;;;;;;5066940;28;20028;-74
2023/11/26 09:38:09;;;;;;;12.45;5.28;;;5.80;99.90;;;;;;5067552;28;20153;-75
2023/11/26 09:40:42;;;;;;;12.18;5.47;;;5.80;99.90;;;;;;5072024;28;20389;-74
2023/11/26 09:43:08;;;;;;;18.33;5.50;;;5.90;99.90;;;;;;5075044;28;20024;-75
2023/11/26 09:45:34;;;;;;;21.02;6.22;;;5.90;99.90;;;;;;5067447;28;20020;-75
2023/11/26 09:47:59;;;;;;;15.15;5.82;;;5.90;99.90;;;;;;5068239;28;20405;-75
2023/11/26 09:50:28;;;;;;;15.65;5.28;;;6.00;99.90;;;;;;5051947;28;20029;-74
2023/11/26 09:52:54;;;;;;;13.85;5.13;;;6.00;99.90;;;;;;5049820;28;20485;-75
2023/11/26 09:55:20;;;;;;;14.88;4.95;;;6.10;99.90;;;;;;5067331;28;20024;-74
2023/11/26 09:57:46;;;;;;;16.85;5.38;;;6.10;99.90;;;;;;5066625;28;20597;-75
2023/11/26 10:00:12;;;;;;;15.68;5.93;;;6.20;99.90;;;;;;5066732;28;20032;-75
2023/11/26 10:02:38;;;;;;;16.17;5.55;;;6.20;99.90;;;;;;5069974;28;20026;-75
2023/11/26 10:05:06;;;;;;;18.63;5.95;;;6.30;99.90;;;;;;5067588;28;20503;-75
2023/11/26 10:07:37;;;;;;;12.90;5.60;;;6.30;99.90;;;;;;5067402;28;20090;-75
2023/11/26 10:10:12;;;;;;;16.73;5.90;;;6.30;99.90;;;;;;5071868;28;20028;-74
2023/11/26 10:12:59;;;;;;;19.08;6.20;;;6.40;99.90;;;;;;5072594;28;20031;-74
2023/11/26 10:15:30;;;;;;;16.98;5.50;;;6.40;99.90;;;;;;5065568;28;20035;-74
2023/11/26 10:17:59;;;;;;;;;;;6.40;99.90;;;;;;5066190;28;20107;-75
2023/11/26 10:20:25;;;;;;;15.70;5.85;;;6.50;99.90;;;;;;5048194;28;20118;-75
2023/11/26 10:22:52;;;;;;;17.40;7.32;;;6.50;99.90;;;;;;5081475;28;20122;-74
2023/11/26 10:25:18;;;;;;;20.08;6.75;;;6.60;99.90;;;;;;5077635;28;20054;-74
2023/11/26 10:27:44;;;;;;;20.25;6.70;;;6.60;99.90;;;;;;5072930;28;20028;-75
2023/11/26 10:30:22;;;;;;;15.35;6.32;;;6.60;99.90;;;;;;5060277;28;20040;-75
2023/11/26 10:33:02;;;;;;;19.40;7.13;;;6.70;99.90;;;;;;5081624;28;20032;-74
2023/11/26 10:35:57;;;;;;;17.98;6.45;;;6.80;99.90;;;;;;5048175;28;20086;-74
2023/11/26 10:38:25;;;;;;;21.27;6.07;;;6.80;99.90;;;;;;5050218;28;20118;-74
2023/11/26 10:40:56;;;;;;;16.48;5.40;;;6.80;99.90;;;;;;5066720;28;20048;-74
2023/11/26 10:43:22;;;;;;;;;;;6.80;99.90;;;;;;5065772;28;20456;-75
2023/11/26 10:45:49;;;;;;;11.63;5.70;;;6.90;99.90;;;;;;5063459;28;19908;-75
2023/11/26 10:48:15;;;;;;;19.45;6.25;;;6.80;99.90;;;;;;5067118;28;20028;-75
2023/11/26 10:51:05;;;;;;;21.30;5.95;;;6.90;99.90;;;;;;5048138;28;20492;-75
2023/11/26 10:53:46;;;;;;;14.32;6.25;;;6.90;99.90;;;;;;5067079;28;20063;-74
2023/11/26 10:56:13;;;;;;;;;;;6.90;99.90;;;;;;5065577;28;20016;-74
2023/11/26 10:58:46;;;;;;;18.83;5.00;;;6.90;99.90;;;;;;5066343;28;19912;-74
2023/11/26 11:01:13;;;;;;;19.98;6.00;;;6.90;99.90;;;;;;5066142;28;20032;-75
2023/11/26 11:03:39;;;;;;;16.45;5.60;;;6.90;99.90;;;;;;5066668;28;20020;-74
2023/11/26 11:06:06;;;;;;;17.48;5.53;;;6.90;99.90;;;;;;5063224;28;20081;-74
2023/11/26 11:08:32;;;;;;;19.00;5.43;;;7.00;99.90;;;;;;5054043;28;20039;-74
2023/11/26 11:11:10;;;;;;;17.85;5.93;;;7.00;99.90;;;;;;5066260;28;20103;-73
2023/11/26 11:13:37;;;;;;;16.10;5.15;;;7.00;99.90;;;;;;5066630;28;20054;-74
2023/11/26 11:16:03;;;;;;;16.40;5.25;;;7.00;99.90;;;;;;5066324;28;20020;-74
2023/11/26 11:18:30;;;;;;;15.98;5.10;;;7.10;99.90;;;;;;5066286;28;20565;-74
2023/11/26 11:21:13;;;;;;;17.25;4.90;;;7.10;99.90;;;;;;5048077;28;20486;-74
2023/11/26 11:23:50;;;;;;;14.00;4.93;;;7.10;99.90;;;;;;5057669;28;20033;-74
2023/11/26 11:26:18;;;;;;;16.27;4.90;;;7.10;99.90;;;;;;5066197;28;20417;-74
2023/11/26 11:28:52;;;;;;;20.48;5.30;;;7.20;99.90;;;;;;5063915;28;20025;-73
2023/11/26 11:31:42;;;;;;;17.10;4.68;;;7.20;99.90;;;;;;5060338;28;20017;-74
2023/11/26 11:34:09;;;;;;;14.30;4.32;;;7.30;99.90;;;;;;5059610;28;20035;-75
2023/11/26 11:36:49;;;;;;;9.25;4.20;;;7.30;99.90;;;;;;5065695;28;20020;-75
2023/11/26 11:39:21;;;;;;;23.98;4.93;;;7.40;99.90;;;;;;5064966;28;20155;-74
2023/11/26 11:42:05;;;;;;;12.77;4.20;;;7.40;99.90;;;;;;5064953;28;20096;-75
2023/11/26 11:44:36;;;;;;;12.57;4.28;;;7.40;99.90;;;;;;5064342;28;20043;-74
2023/11/26 11:47:02;;;;;;;16.55;4.88;;;7.50;99.90;;;;;;5065684;28;20021;-74
2023/11/26 11:49:46;;;;;;;12.63;4.22;;;7.50;99.90;;;;;;5066085;28;20444;-75
2023/11/26 11:52:13;;;;;;;17.00;4.78;;;7.50;99.90;;;;;;5065102;28;20059;-74
2023/11/26 11:54:54;;;;;;;13.55;4.20;;;7.60;99.90;;;;;;5066272;28;20021;-75
2023/11/26 11:57:22;;;;;;;;;;;7.60;99.90;;;;;;5044967;28;20060;-74
2023/11/26 11:59:49;;;;;;;14.85;3.88;;;7.60;99.90;;;;;;5064815;28;19912;-74
2023/11/26 12:02:16;;;;;;;14.13;3.97;;;7.60;99.90;;;;;;5065188;28;20552;-75
2023/11/26 12:04:50;;;;;;;11.57;4.05;;;7.60;99.90;;;;;;5065810;28;20485;-74
2023/11/26 12:07:18;;;;;;;16.88;4.20;;;7.60;99.90;;;;;;5065211;28;20024;-74
2023/11/26 12:09:45;;;;;;;12.85;3.58;;;7.70;99.90;;;;;;5047284;28;20036;-74
2023/11/26 12:12:16;;;;;;;13.00;3.63;;;7.70;99.90;;;;;;5065657;28;20023;-74
2023/11/26 12:14:41;;;;;;;15.38;4.20;;;7.80;99.90;;;;;;5065498;28;20031;-75
2023/11/26 12:17:08;;;;;;;16.63;3.70;;;7.80;99.90;;;;;;5065436;28;20032;-74
2023/11/26 12:19:37;;;;;;;11.18;3.38;;;7.80;99.90;;;;;;5065557;28;20563;-74
2023/11/26 12:22:04;;;;;;;13.35;3.53;;;7.80;99.90;;;;;;5066609;28;20025;-74
2023/11/26 12:24:31;;;;;;;14.30;3.63;;;7.80;99.90;;;;;;5068965;28;20103;-74
2023/11/26 12:26:56;;;;;;;12.18;3.63;;;7.80;99.90;;;;;;5068017;28;20509;-74
2023/11/26 12:29:26;;;;;;;14.45;3.83;;;7.90;99.90;;;;;;5069658;28;20052;-74
2023/11/26 12:32:25;;;;;;;12.10;3.55;;;7.80;99.90;;;;;;5068206;28;20103;-74
2023/11/26 12:34:54;;;;;;;10.18;3.55;;;7.80;99.90;;;;;;5068620;28;20478;-73
2023/11/26 12:37:20;;;;;;;14.90;3.35;;;7.80;99.90;;;;;;5068370;28;20028;-74
2023/11/26 12:39:48;;;;;;;11.35;3.65;;;7.80;99.90;;;;;;5050869;28;20041;-74
2023/11/26 12:42:14;;;;;;;17.45;3.45;;;7.80;99.90;;;;;;5048723;28;20022;-74
2023/11/26 12:44:40;;;;;;;11.65;3.20;;;7.80;99.90;;;;;;5048521;28;20071;-74
2023/11/26 12:47:09;;;;;;;8.82;2.88;;;7.80;99.90;;;;;;5048293;28;20072;-75
2023/11/26 12:49:36;;;;;;;10.63;3.33;;;7.80;99.90;;;;;;5049187;28;20033;-75
2023/11/26 12:52:03;;;;;;;15.38;3.15;;;7.80;99.90;;;;;;5046404;28;20025;-74